sensor_id;sensor_type;location;lat;lon;timestamp;P1;durP1;ratioP1;P2;durP2;ratioP2
8640;SDS011;4358;42.100;25.222;2023-05-07T00:00:23;3.80;;;2.80;;
8640;SDS011;4358;42.100;25.222;2023-05-07T00:02:50;3.43;;;2.90;;
8640;SDS011;4358;42.100;25.222;2023-05-07T00:05:16;6.60;;;3.00;;
8640;SDS011;4358;42.100;25.222;2023-05-07T00:07:43;4.43;;;3.20;;
8640;SDS011;4358;42.100;25.222;2023-05-07T00:10:10;6.77;;;3.50;;
8640;SDS011;4358;42.100;25.222;2023-05-07T00:12:38;6.60;;;3.73;;
8640;SDS011;4358;42.100;25.222;2023-05-07T00:15:05;3.50;;;3.20;;
8640;SDS011;4358;42.100;25.222;2023-05-07T00:17:34;7.07;;;3.90;;
8640;SDS011;4358;42.100;25.222;2023-05-07T00:20:01;4.00;;;3.20;;
8640;SDS011;4358;42.100;25.222;2023-05-07T00:22:30;5.10;;;3.63;;
8640;SDS011;4358;42.100;25.222;2023-05-07T00:24:57;4.40;;;4.00;;
8640;SDS011;4358;42.100;25.222;2023-05-07T00:27:24;3.80;;;3.27;;
8640;SDS011;4358;42.100;25.222;2023-05-07T00:29:51;7.20;;;3.77;;
8640;SDS011;4358;42.100;25.222;2023-05-07T00:32:18;3.93;;;3.50;;
8640;SDS011;4358;42.100;25.222;2023-05-07T00:34:46;5.33;;;3.97;;
8640;SDS011;4358;42.100;25.222;2023-05-07T00:37:13;6.47;;;3.30;;
8640;SDS011;4358;42.100;25.222;2023-05-07T00:39:40;6.17;;;3.53;;
8640;SDS011;4358;42.100;25.222;2023-05-07T00:42:06;5.70;;;3.80;;
8640;SDS011;4358;42.100;25.222;2023-05-07T00:44:34;3.97;;;3.27;;
8640;SDS011;4358;42.100;25.222;2023-05-07T00:47:01;3.93;;;3.30;;
8640;SDS011;4358;42.100;25.222;2023-05-07T00:49:32;3.90;;;3.30;;
8640;SDS011;4358;42.100;25.222;2023-05-07T00:52:05;3.73;;;3.30;;
8640;SDS011;4358;42.100;25.222;2023-05-07T00:54:32;4.63;;;3.23;;
8640;SDS011;4358;42.100;25.222;2023-05-07T00:57:01;3.43;;;3.13;;
8640;SDS011;4358;42.100;25.222;2023-05-07T00:59:28;3.77;;;3.37;;
8640;SDS011;4358;42.100;25.222;2023-05-07T01:01:57;3.50;;;3.20;;
8640;SDS011;4358;42.100;25.222;2023-05-07T01:04:23;4.17;;;3.20;;
8640;SDS011;4358;42.100;25.222;2023-05-07T01:06:50;6.93;;;3.23;;
8640;SDS011;4358;42.100;25.222;2023-05-07T01:09:20;4.50;;;3.90;;
8640;SDS011;4358;42.100;25.222;2023-05-07T01:11:47;3.83;;;3.43;;
8640;SDS011;4358;42.100;25.222;2023-05-07T01:14:15;3.47;;;3.17;;
8640;SDS011;4358;42.100;25.222;2023-05-07T01:16:43;3.40;;;3.10;;
8640;SDS011;4358;42.100;25.222;2023-05-07T01:19:10;4.80;;;3.50;;
8640;SDS011;4358;42.100;25.222;2023-05-07T01:21:39;3.97;;;3.23;;
8640;SDS011;4358;42.100;25.222;2023-05-07T01:24:12;4.10;;;3.33;;
8640;SDS011;4358;42.100;25.222;2023-05-07T01:26:41;4.20;;;3.37;;
8640;SDS011;4358;42.100;25.222;2023-05-07T01:29:09;3.67;;;3.33;;
8640;SDS011;4358;42.100;25.222;2023-05-07T01:31:35;3.90;;;3.53;;
8640;SDS011;4358;42.100;25.222;2023-05-07T01:34:03;3.73;;;3.10;;
8640;SDS011;4358;42.100;25.222;2023-05-07T01:36:33;3.80;;;3.20;;
8640;SDS011;4358;42.100;25.222;2023-05-07T01:39:01;5.30;;;3.63;;
8640;SDS011;4358;42.100;25.222;2023-05-07T01:41:30;6.00;;;3.23;;
8640;SDS011;4358;42.100;25.222;2023-05-07T01:43:57;3.50;;;3.20;;
8640;SDS011;4358;42.100;25.222;2023-05-07T01:46:26;5.23;;;3.90;;
8640;SDS011;4358;42.100;25.222;2023-05-07T01:48:53;4.30;;;3.50;;
8640;SDS011;4358;42.100;25.222;2023-05-07T01:51:20;4.40;;;4.00;;
8640;SDS011;4358;42.100;25.222;2023-05-07T01:53:47;5.57;;;4.00;;
8640;SDS011;4358;42.100;25.222;2023-05-07T01:56:16;4.43;;;4.03;;
8640;SDS011;4358;42.100;25.222;2023-05-07T01:58:45;4.67;;;4.23;;
8640;SDS011;4358;42.100;25.222;2023-05-07T02:01:12;4.70;;;3.90;;
8640;SDS011;4358;42.100;25.222;2023-05-07T02:03:39;5.10;;;4.13;;
8640;SDS011;4358;42.100;25.222;2023-05-07T02:06:06;5.87;;;4.30;;
8640;SDS011;4358;42.100;25.222;2023-05-07T02:08:33;5.00;;;4.17;;
8640;SDS011;4358;42.100;25.222;2023-05-07T02:11:00;5.93;;;4.27;;
8640;SDS011;4358;42.100;25.222;2023-05-07T02:13:28;5.83;;;4.33;;
8640;SDS011;4358;42.100;25.222;2023-05-07T02:15:57;5.63;;;4.07;;
8640;SDS011;4358;42.100;25.222;2023-05-07T02:18:24;6.60;;;4.70;;
8640;SDS011;4358;42.100;25.222;2023-05-07T02:20:51;6.47;;;4.37;;
8640;SDS011;4358;42.100;25.222;2023-05-07T02:23:18;6.00;;;4.60;;
8640;SDS011;4358;42.100;25.222;2023-05-07T02:25:45;5.43;;;4.60;;
8640;SDS011;4358;42.100;25.222;2023-05-07T02:28:11;6.10;;;4.90;;
8640;SDS011;4358;42.100;25.222;2023-05-07T02:30:38;4.87;;;4.37;;
8640;SDS011;4358;42.100;25.222;2023-05-07T02:33:06;6.50;;;5.73;;
8640;SDS011;4358;42.100;25.222;2023-05-07T02:35:34;8.50;;;7.30;;
8640;SDS011;4358;42.100;25.222;2023-05-07T02:38:01;9.70;;;8.77;;
8640;SDS011;4358;42.100;25.222;2023-05-07T02:40:28;10.63;;;8.13;;
8640;SDS011;4358;42.100;25.222;2023-05-07T02:42:54;14.27;;;12.77;;
8640;SDS011;4358;42.100;25.222;2023-05-07T02:45:21;11.77;;;10.43;;
8640;SDS011;4358;42.100;25.222;2023-05-07T02:47:48;12.00;;;8.93;;
8640;SDS011;4358;42.100;25.222;2023-05-07T02:50:16;8.13;;;7.33;;
8640;SDS011;4358;42.100;25.222;2023-05-07T02:52:43;6.53;;;5.07;;
8640;SDS011;4358;42.100;25.222;2023-05-07T02:55:10;4.73;;;4.23;;
8640;SDS011;4358;42.100;25.222;2023-05-07T02:57:37;5.20;;;4.70;;
8640;SDS011;4358;42.100;25.222;2023-05-07T03:00:10;6.17;;;5.07;;
8640;SDS011;4358;42.100;25.222;2023-05-07T03:02:38;6.30;;;4.90;;
8640;SDS011;4358;42.100;25.222;2023-05-07T03:05:06;5.27;;;4.50;;
8640;SDS011;4358;42.100;25.222;2023-05-07T03:07:34;6.10;;;5.50;;
8640;SDS011;4358;42.100;25.222;2023-05-07T03:10:01;7.63;;;5.37;;
8640;SDS011;4358;42.100;25.222;2023-05-07T03:12:28;7.53;;;5.60;;
8640;SDS011;4358;42.100;25.222;2023-05-07T03:14:55;8.53;;;6.03;;
8640;SDS011;4358;42.100;25.222;2023-05-07T04:30:46;5.77;;;4.70;;
8640;SDS011;4358;42.100;25.222;2023-05-07T04:33:13;4.27;;;3.87;;
8640;SDS011;4358;42.100;25.222;2023-05-07T04:35:42;8.27;;;3.90;;
8640;SDS011;4358;42.100;25.222;2023-05-07T04:38:09;4.43;;;3.77;;
8640;SDS011;4358;42.100;25.222;2023-05-07T04:40:36;6.20;;;4.90;;
8640;SDS011;4358;42.100;25.222;2023-05-07T04:43:04;6.00;;;4.50;;
8640;SDS011;4358;42.100;25.222;2023-05-07T04:45:31;5.80;;;5.20;;
8640;SDS011;4358;42.100;25.222;2023-05-07T04:47:59;8.40;;;5.67;;
8640;SDS011;4358;42.100;25.222;2023-05-07T04:50:26;7.00;;;6.10;;
8640;SDS011;4358;42.100;25.222;2023-05-07T04:52:53;7.17;;;6.57;;
8640;SDS011;4358;42.100;25.222;2023-05-07T04:55:20;6.83;;;5.97;;
8640;SDS011;4358;42.100;25.222;2023-05-07T04:57:47;7.20;;;5.93;;
8640;SDS011;4358;42.100;25.222;2023-05-07T05:00:14;8.10;;;5.57;;
8640;SDS011;4358;42.100;25.222;2023-05-07T05:02:41;7.97;;;6.10;;
8640;SDS011;4358;42.100;25.222;2023-05-07T05:05:09;8.43;;;6.67;;
8640;SDS011;4358;42.100;25.222;2023-05-07T05:07:36;7.00;;;6.23;;
8640;SDS011;4358;42.100;25.222;2023-05-07T05:10:04;8.40;;;6.37;;
8640;SDS011;4358;42.100;25.222;2023-05-07T05:12:32;7.40;;;6.40;;
8640;SDS011;4358;42.100;25.222;2023-05-07T05:14:59;10.20;;;8.13;;
8640;SDS011;4358;42.100;25.222;2023-05-07T05:17:25;10.30;;;6.80;;
8640;SDS011;4358;42.100;25.222;2023-05-07T05:19:52;13.20;;;8.90;;
8640;SDS011;4358;42.100;25.222;2023-05-07T05:22:20;11.50;;;9.13;;
8640;SDS011;4358;42.100;25.222;2023-05-07T05:24:47;10.07;;;8.83;;
8640;SDS011;4358;42.100;25.222;2023-05-07T05:27:14;12.10;;;9.63;;
8640;SDS011;4358;42.100;25.222;2023-05-07T05:29:41;11.17;;;9.50;;
8640;SDS011;4358;42.100;25.222;2023-05-07T05:32:07;10.33;;;9.23;;
8640;SDS011;4358;42.100;25.222;2023-05-07T05:34:35;13.50;;;8.93;;
8640;SDS011;4358;42.100;25.222;2023-05-07T05:37:03;9.53;;;8.40;;
8640;SDS011;4358;42.100;25.222;2023-05-07T05:39:31;8.33;;;7.43;;
8640;SDS011;4358;42.100;25.222;2023-05-07T05:41:58;8.00;;;7.20;;
8640;SDS011;4358;42.100;25.222;2023-05-07T05:44:25;8.33;;;7.03;;
8640;SDS011;4358;42.100;25.222;2023-05-07T05:46:52;9.87;;;7.83;;
8640;SDS011;4358;42.100;25.222;2023-05-07T05:49:20;11.20;;;7.33;;
8640;SDS011;4358;42.100;25.222;2023-05-07T05:51:47;11.80;;;6.70;;
8640;SDS011;4358;42.100;25.222;2023-05-07T05:54:13;7.03;;;6.30;;
8640;SDS011;4358;42.100;25.222;2023-05-07T05:56:41;6.37;;;5.73;;
8640;SDS011;4358;42.100;25.222;2023-05-07T05:59:08;7.23;;;6.33;;
8640;SDS011;4358;42.100;25.222;2023-05-07T06:01:36;10.27;;;6.00;;
8640;SDS011;4358;42.100;25.222;2023-05-07T06:04:03;9.40;;;8.43;;
8640;SDS011;4358;42.100;25.222;2023-05-07T06:06:30;6.40;;;5.80;;
8640;SDS011;4358;42.100;25.222;2023-05-07T06:08:57;6.87;;;6.17;;
8640;SDS011;4358;42.100;25.222;2023-05-07T06:11:24;8.77;;;5.67;;
8640;SDS011;4358;42.100;25.222;2023-05-07T06:13:52;5.60;;;5.10;;
8640;SDS011;4358;42.100;25.222;2023-05-07T06:16:19;5.73;;;5.10;;
8640;SDS011;4358;42.100;25.222;2023-05-07T06:18:46;6.20;;;5.43;;
8640;SDS011;4358;42.100;25.222;2023-05-07T06:21:13;5.90;;;5.30;;
8640;SDS011;4358;42.100;25.222;2023-05-07T06:23:40;5.43;;;4.93;;
8640;SDS011;4358;42.100;25.222;2023-05-07T06:26:07;5.40;;;4.70;;
8640;SDS011;4358;42.100;25.222;2023-05-07T06:28:33;5.50;;;4.87;;
8640;SDS011;4358;42.100;25.222;2023-05-07T06:33:46;5.27;;;4.70;;
8640;SDS011;4358;42.100;25.222;2023-05-07T06:36:12;5.77;;;4.73;;
8640;SDS011;4358;42.100;25.222;2023-05-07T06:38:39;5.53;;;4.77;;
8640;SDS011;4358;42.100;25.222;2023-05-07T06:41:06;8.00;;;4.07;;
8640;SDS011;4358;42.100;25.222;2023-05-07T06:43:33;9.13;;;4.77;;
8640;SDS011;4358;42.100;25.222;2023-05-07T06:46:00;5.30;;;3.90;;
8640;SDS011;4358;42.100;25.222;2023-05-07T06:48:28;4.50;;;3.67;;
8640;SDS011;4358;42.100;25.222;2023-05-07T06:50:55;5.10;;;4.13;;
8640;SDS011;4358;42.100;25.222;2023-05-07T06:53:22;5.03;;;4.10;;
8640;SDS011;4358;42.100;25.222;2023-05-07T06:55:49;4.83;;;3.70;;
8640;SDS011;4358;42.100;25.222;2023-05-07T06:58:17;4.93;;;3.40;;
8640;SDS011;4358;42.100;25.222;2023-05-07T07:00:43;5.30;;;3.47;;
8640;SDS011;4358;42.100;25.222;2023-05-07T07:03:11;4.10;;;3.60;;
8640;SDS011;4358;42.100;25.222;2023-05-07T07:05:39;5.70;;;3.90;;
8640;SDS011;4358;42.100;25.222;2023-05-07T07:08:06;4.13;;;3.60;;
8640;SDS011;4358;42.100;25.222;2023-05-07T07:10:33;3.83;;;3.40;;
8640;SDS011;4358;42.100;25.222;2023-05-07T07:13:00;3.90;;;3.47;;
8640;SDS011;4358;42.100;25.222;2023-05-07T07:15:27;6.10;;;3.80;;
8640;SDS011;4358;42.100;25.222;2023-05-07T07:17:54;4.13;;;3.70;;
8640;SDS011;4358;42.100;25.222;2023-05-07T07:20:20;5.33;;;4.07;;
8640;SDS011;4358;42.100;25.222;2023-05-07T07:22:49;5.20;;;4.03;;
8640;SDS011;4358;42.100;25.222;2023-05-07T07:25:16;5.03;;;3.90;;
8640;SDS011;4358;42.100;25.222;2023-05-07T07:27:42;4.23;;;3.30;;
8640;SDS011;4358;42.100;25.222;2023-05-07T07:30:09;4.97;;;3.33;;
8640;SDS011;4358;42.100;25.222;2023-05-07T07:32:37;5.97;;;3.37;;
8640;SDS011;4358;42.100;25.222;2023-05-07T07:35:04;4.30;;;3.53;;
8640;SDS011;4358;42.100;25.222;2023-05-07T07:37:31;4.40;;;3.53;;
8640;SDS011;4358;42.100;25.222;2023-05-07T07:39:59;3.83;;;3.43;;
8640;SDS011;4358;42.100;25.222;2023-05-07T07:42:26;3.73;;;3.27;;
8640;SDS011;4358;42.100;25.222;2023-05-07T07:44:54;4.50;;;3.27;;
8640;SDS011;4358;42.100;25.222;2023-05-07T07:47:22;3.20;;;2.83;;
8640;SDS011;4358;42.100;25.222;2023-05-07T07:49:49;3.83;;;3.37;;
8640;SDS011;4358;42.100;25.222;2023-05-07T07:52:15;4.40;;;3.47;;
8640;SDS011;4358;42.100;25.222;2023-05-07T07:54:42;3.30;;;3.00;;
8640;SDS011;4358;42.100;25.222;2023-05-07T07:57:11;4.03;;;3.27;;
8640;SDS011;4358;42.100;25.222;2023-05-07T07:59:38;3.30;;;2.70;;
8640;SDS011;4358;42.100;25.222;2023-05-07T08:02:07;3.73;;;3.23;;
8640;SDS011;4358;42.100;25.222;2023-05-07T08:04:34;3.37;;;2.63;;
8640;SDS011;4358;42.100;25.222;2023-05-07T08:07:02;4.00;;;2.67;;
8640;SDS011;4358;42.100;25.222;2023-05-07T08:09:29;3.57;;;2.70;;
8640;SDS011;4358;42.100;25.222;2023-05-07T08:11:56;3.17;;;2.63;;
8640;SDS011;4358;42.100;25.222;2023-05-07T08:14:24;3.00;;;2.50;;
8640;SDS011;4358;42.100;25.222;2023-05-07T08:16:51;3.67;;;2.93;;
8640;SDS011;4358;42.100;25.222;2023-05-07T08:19:17;3.53;;;2.63;;
8640;SDS011;4358;42.100;25.222;2023-05-07T08:21:44;3.30;;;2.83;;
8640;SDS011;4358;42.100;25.222;2023-05-07T08:24:12;3.53;;;2.97;;
8640;SDS011;4358;42.100;25.222;2023-05-07T08:26:39;2.93;;;2.47;;
8640;SDS011;4358;42.100;25.222;2023-05-07T08:29:06;3.63;;;2.83;;
8640;SDS011;4358;42.100;25.222;2023-05-07T08:31:35;3.67;;;2.33;;
8640;SDS011;4358;42.100;25.222;2023-05-07T08:34:03;2.37;;;2.17;;
8640;SDS011;4358;42.100;25.222;2023-05-07T08:36:31;2.57;;;2.20;;
8640;SDS011;4358;42.100;25.222;2023-05-07T08:38:58;3.33;;;2.70;;
8640;SDS011;4358;42.100;25.222;2023-05-07T08:41:26;2.70;;;2.50;;
8640;SDS011;4358;42.100;25.222;2023-05-07T08:43:52;3.83;;;2.50;;
8640;SDS011;4358;42.100;25.222;2023-05-07T08:46:23;2.77;;;2.27;;
8640;SDS011;4358;42.100;25.222;2023-05-07T08:48:53;3.27;;;2.37;;
8640;SDS011;4358;42.100;25.222;2023-05-07T08:51:20;2.47;;;2.03;;
8640;SDS011;4358;42.100;25.222;2023-05-07T08:53:48;2.43;;;2.23;;
8640;SDS011;4358;42.100;25.222;2023-05-07T08:56:16;2.53;;;2.33;;
8640;SDS011;4358;42.100;25.222;2023-05-07T08:58:45;2.40;;;2.20;;
8640;SDS011;4358;42.100;25.222;2023-05-07T09:01:13;2.27;;;2.07;;
8640;SDS011;4358;42.100;25.222;2023-05-07T09:03:40;3.10;;;2.33;;
8640;SDS011;4358;42.100;25.222;2023-05-07T09:06:11;4.63;;;2.53;;
8640;SDS011;4358;42.100;25.222;2023-05-07T09:08:38;3.60;;;2.47;;
8640;SDS011;4358;42.100;25.222;2023-05-07T09:11:05;2.97;;;2.40;;
8640;SDS011;4358;42.100;25.222;2023-05-07T09:13:32;3.17;;;2.20;;
8640;SDS011;4358;42.100;25.222;2023-05-07T09:15:59;3.47;;;2.47;;
8640;SDS011;4358;42.100;25.222;2023-05-07T09:18:40;3.60;;;2.40;;
8640;SDS011;4358;42.100;25.222;2023-05-07T09:21:09;2.30;;;2.07;;
8640;SDS011;4358;42.100;25.222;2023-05-07T09:23:38;3.17;;;2.20;;
8640;SDS011;4358;42.100;25.222;2023-05-07T09:26:06;3.60;;;2.30;;
8640;SDS011;4358;42.100;25.222;2023-05-07T09:28:37;4.80;;;2.43;;
8640;SDS011;4358;42.100;25.222;2023-05-07T09:31:05;3.40;;;2.30;;
8640;SDS011;4358;42.100;25.222;2023-05-07T09:33:32;5.17;;;2.43;;
8640;SDS011;4358;42.100;25.222;2023-05-07T09:36:01;2.30;;;2.10;;
8640;SDS011;4358;42.100;25.222;2023-05-07T09:38:29;2.50;;;2.30;;
8640;SDS011;4358;42.100;25.222;2023-05-07T09:41:04;2.63;;;2.10;;
8640;SDS011;4358;42.100;25.222;2023-05-07T09:43:32;3.57;;;2.30;;
8640;SDS011;4358;42.100;25.222;2023-05-07T09:46:02;2.87;;;1.90;;
8640;SDS011;4358;42.100;25.222;2023-05-07T09:48:34;3.50;;;1.63;;
8640;SDS011;4358;42.100;25.222;2023-05-07T09:51:04;2.93;;;1.70;;
8640;SDS011;4358;42.100;25.222;2023-05-07T09:53:36;2.37;;;1.80;;
8640;SDS011;4358;42.100;25.222;2023-05-07T09:56:05;2.10;;;1.90;;
8640;SDS011;4358;42.100;25.222;2023-05-07T09:58:33;1.50;;;1.40;;
8640;SDS011;4358;42.100;25.222;2023-05-07T10:01:03;1.77;;;1.63;;
8640;SDS011;4358;42.100;25.222;2023-05-07T10:03:30;3.27;;;1.87;;
8640;SDS011;4358;42.100;25.222;2023-05-07T10:06:00;4.47;;;2.10;;
8640;SDS011;4358;42.100;25.222;2023-05-07T10:08:28;3.23;;;1.57;;
8640;SDS011;4358;42.100;25.222;2023-05-07T10:10:56;1.63;;;1.53;;
8640;SDS011;4358;42.100;25.222;2023-05-07T10:13:24;4.80;;;1.70;;
8640;SDS011;4358;42.100;25.222;2023-05-07T10:15:51;2.47;;;1.50;;
8640;SDS011;4358;42.100;25.222;2023-05-07T10:18:19;1.40;;;1.30;;
8640;SDS011;4358;42.100;25.222;2023-05-07T10:20:48;2.03;;;1.80;;
8640;SDS011;4358;42.100;25.222;2023-05-07T10:23:19;7.63;;;1.80;;
8640;SDS011;4358;42.100;25.222;2023-05-07T10:25:50;3.13;;;1.70;;
8640;SDS011;4358;42.100;25.222;2023-05-07T10:28:19;4.10;;;1.53;;
8640;SDS011;4358;42.100;25.222;2023-05-07T10:30:53;1.57;;;1.40;;
8640;SDS011;4358;42.100;25.222;2023-05-07T10:33:28;3.40;;;1.60;;
8640;SDS011;4358;42.100;25.222;2023-05-07T10:35:57;2.77;;;1.87;;
8640;SDS011;4358;42.100;25.222;2023-05-07T10:38:26;2.10;;;1.70;;
8640;SDS011;4358;42.100;25.222;2023-05-07T10:40:54;1.83;;;1.33;;
8640;SDS011;4358;42.100;25.222;2023-05-07T10:43:21;2.73;;;1.90;;
8640;SDS011;4358;42.100;25.222;2023-05-07T10:51:33;5.53;;;1.77;;
8640;SDS011;4358;42.100;25.222;2023-05-07T10:54:19;2.93;;;1.80;;
8640;SDS011;4358;42.100;25.222;2023-05-07T10:56:47;2.73;;;1.80;;
8640;SDS011;4358;42.100;25.222;2023-05-07T11:02:08;2.00;;;1.70;;
8640;SDS011;4358;42.100;25.222;2023-05-07T11:04:36;1.93;;;1.60;;
8640;SDS011;4358;42.100;25.222;2023-05-07T11:09:59;2.77;;;2.03;;
8640;SDS011;4358;42.100;25.222;2023-05-07T11:12:46;2.03;;;1.67;;
8640;SDS011;4358;42.100;25.222;2023-05-07T11:15:14;1.70;;;1.60;;
8640;SDS011;4358;42.100;25.222;2023-05-07T11:18:00;2.93;;;1.93;;
8640;SDS011;4358;42.100;25.222;2023-05-07T11:26:25;2.13;;;1.80;;
8640;SDS011;4358;42.100;25.222;2023-05-07T11:28:53;2.13;;;1.73;;
8640;SDS011;4358;42.100;25.222;2023-05-07T11:31:21;3.27;;;1.93;;
8640;SDS011;4358;42.100;25.222;2023-05-07T11:33:51;1.90;;;1.60;;
8640;SDS011;4358;42.100;25.222;2023-05-07T11:36:19;2.10;;;1.90;;
8640;SDS011;4358;42.100;25.222;2023-05-07T11:38:46;3.20;;;2.03;;
8640;SDS011;4358;42.100;25.222;2023-05-07T11:41:13;4.93;;;2.17;;
8640;SDS011;4358;42.100;25.222;2023-05-07T11:43:53;2.70;;;1.70;;
8640;SDS011;4358;42.100;25.222;2023-05-07T11:46:21;1.70;;;1.60;;
8640;SDS011;4358;42.100;25.222;2023-05-07T11:48:48;3.73;;;1.67;;
8640;SDS011;4358;42.100;25.222;2023-05-07T11:51:19;2.00;;;1.50;;
8640;SDS011;4358;42.100;25.222;2023-05-07T11:53:47;1.87;;;1.40;;
8640;SDS011;4358;42.100;25.222;2023-05-07T11:56:14;2.27;;;1.67;;
8640;SDS011;4358;42.100;25.222;2023-05-07T11:58:43;2.63;;;1.60;;
8640;SDS011;4358;42.100;25.222;2023-05-07T12:01:12;1.93;;;1.60;;
8640;SDS011;4358;42.100;25.222;2023-05-07T12:03:40;1.90;;;1.60;;
8640;SDS011;4358;42.100;25.222;2023-05-07T12:06:09;2.13;;;1.90;;
8640;SDS011;4358;42.100;25.222;2023-05-07T12:08:39;1.50;;;1.40;;
8640;SDS011;4358;42.100;25.222;2023-05-07T12:11:07;1.87;;;1.77;;
8640;SDS011;4358;42.100;25.222;2023-05-07T12:13:36;2.23;;;1.63;;
8640;SDS011;4358;42.100;25.222;2023-05-07T12:16:03;1.97;;;1.60;;
8640;SDS011;4358;42.100;25.222;2023-05-07T12:18:32;1.70;;;1.60;;
8640;SDS011;4358;42.100;25.222;2023-05-07T12:21:00;1.40;;;1.30;;
8640;SDS011;4358;42.100;25.222;2023-05-07T12:23:27;1.60;;;1.50;;
8640;SDS011;4358;42.100;25.222;2023-05-07T12:25:56;1.70;;;1.57;;
8640;SDS011;4358;42.100;25.222;2023-05-07T12:28:23;3.77;;;1.73;;
8640;SDS011;4358;42.100;25.222;2023-05-07T12:30:50;3.33;;;1.80;;
8640;SDS011;4358;42.100;25.222;2023-05-07T12:33:18;2.00;;;1.80;;
8640;SDS011;4358;42.100;25.222;2023-05-07T12:35:49;1.67;;;1.57;;
8640;SDS011;4358;42.100;25.222;2023-05-07T12:38:17;4.03;;;2.17;;
8640;SDS011;4358;42.100;25.222;2023-05-07T12:40:45;3.13;;;1.60;;
8640;SDS011;4358;42.100;25.222;2023-05-07T12:43:17;2.20;;;1.60;;
8640;SDS011;4358;42.100;25.222;2023-05-07T12:45:44;3.67;;;1.70;;
8640;SDS011;4358;42.100;25.222;2023-05-07T12:48:12;1.67;;;1.57;;
8640;SDS011;4358;42.100;25.222;2023-05-07T12:50:39;1.87;;;1.57;;
8640;SDS011;4358;42.100;25.222;2023-05-07T12:53:07;1.60;;;1.50;;
8640;SDS011;4358;42.100;25.222;2023-05-07T12:55:40;2.43;;;1.63;;
8640;SDS011;4358;42.100;25.222;2023-05-07T12:58:08;2.33;;;1.47;;
8640;SDS011;4358;42.100;25.222;2023-05-07T13:00:43;4.33;;;1.67;;
8640;SDS011;4358;42.100;25.222;2023-05-07T13:03:10;2.70;;;1.70;;
8640;SDS011;4358;42.100;25.222;2023-05-07T13:05:37;2.90;;;1.40;;
8640;SDS011;4358;42.100;25.222;2023-05-07T13:08:04;2.43;;;1.57;;
8640;SDS011;4358;42.100;25.222;2023-05-07T13:10:31;1.83;;;1.57;;
8640;SDS011;4358;42.100;25.222;2023-05-07T13:12:59;3.63;;;1.60;;
8640;SDS011;4358;42.100;25.222;2023-05-07T13:15:26;1.77;;;1.60;;
8640;SDS011;4358;42.100;25.222;2023-05-07T13:17:54;4.07;;;1.60;;
8640;SDS011;4358;42.100;25.222;2023-05-07T13:20:21;3.70;;;1.70;;
8640;SDS011;4358;42.100;25.222;2023-05-07T13:22:48;1.77;;;1.50;;
8640;SDS011;4358;42.100;25.222;2023-05-07T13:25:15;2.83;;;2.07;;
8640;SDS011;4358;42.100;25.222;2023-05-07T13:27:42;1.70;;;1.60;;
8640;SDS011;4358;42.100;25.222;2023-05-07T13:30:08;1.70;;;1.60;;
8640;SDS011;4358;42.100;25.222;2023-05-07T13:32:35;3.80;;;1.80;;
8640;SDS011;4358;42.100;25.222;2023-05-07T13:35:04;3.57;;;1.70;;
8640;SDS011;4358;42.100;25.222;2023-05-07T13:37:31;3.37;;;1.70;;
8640;SDS011;4358;42.100;25.222;2023-05-07T13:39:58;2.63;;;1.60;;
8640;SDS011;4358;42.100;25.222;2023-05-07T13:42:25;2.80;;;1.60;;
8640;SDS011;4358;42.100;25.222;2023-05-07T13:44:51;2.60;;;1.63;;
8640;SDS011;4358;42.100;25.222;2023-05-07T13:47:18;1.60;;;1.40;;
8640;SDS011;4358;42.100;25.222;2023-05-07T13:49:45;2.77;;;1.60;;
8640;SDS011;4358;42.100;25.222;2023-05-07T13:52:16;2.43;;;1.40;;
8640;SDS011;4358;42.100;25.222;2023-05-07T13:54:42;3.10;;;1.60;;
8640;SDS011;4358;42.100;25.222;2023-05-07T13:57:09;1.63;;;1.53;;
8640;SDS011;4358;42.100;25.222;2023-05-07T13:59:36;2.33;;;1.73;;
8640;SDS011;4358;42.100;25.222;2023-05-07T14:02:03;4.70;;;1.63;;
8640;SDS011;4358;42.100;25.222;2023-05-07T14:04:30;1.83;;;1.70;;
8640;SDS011;4358;42.100;25.222;2023-05-07T14:06:57;3.03;;;1.70;;
8640;SDS011;4358;42.100;25.222;2023-05-07T14:09:25;2.70;;;1.43;;
8640;SDS011;4358;42.100;25.222;2023-05-07T14:11:52;1.70;;;1.60;;
8640;SDS011;4358;42.100;25.222;2023-05-07T14:14:18;1.73;;;1.53;;
8640;SDS011;4358;42.100;25.222;2023-05-07T14:16:45;2.83;;;1.67;;
8640;SDS011;4358;42.100;25.222;2023-05-07T14:19:12;1.70;;;1.60;;
8640;SDS011;4358;42.100;25.222;2023-05-07T14:21:39;3.40;;;1.53;;
8640;SDS011;4358;42.100;25.222;2023-05-07T14:24:06;2.70;;;1.70;;
8640;SDS011;4358;42.100;25.222;2023-05-07T14:26:35;1.77;;;1.60;;
8640;SDS011;4358;42.100;25.222;2023-05-07T14:29:02;2.53;;;1.60;;
8640;SDS011;4358;42.100;25.222;2023-05-07T14:31:29;3.90;;;1.60;;
8640;SDS011;4358;42.100;25.222;2023-05-07T14:33:56;3.27;;;1.50;;
8640;SDS011;4358;42.100;25.222;2023-05-07T14:36:24;2.03;;;1.90;;
8640;SDS011;4358;42.100;25.222;2023-05-07T14:38:52;2.27;;;1.77;;
8640;SDS011;4358;42.100;25.222;2023-05-07T14:41:19;3.10;;;1.53;;
8640;SDS011;4358;42.100;25.222;2023-05-07T14:43:48;2.67;;;1.70;;
8640;SDS011;4358;42.100;25.222;2023-05-07T14:46:16;2.10;;;1.60;;
8640;SDS011;4358;42.100;25.222;2023-05-07T14:51:11;2.67;;;1.60;;
8640;SDS011;4358;42.100;25.222;2023-05-07T14:53:38;2.73;;;1.67;;
8640;SDS011;4358;42.100;25.222;2023-05-07T14:56:05;1.63;;;1.53;;
8640;SDS011;4358;42.100;25.222;2023-05-07T14:58:32;6.77;;;1.70;;
8640;SDS011;4358;42.100;25.222;2023-05-07T15:01:00;4.17;;;1.90;;
8640;SDS011;4358;42.100;25.222;2023-05-07T15:03:27;1.67;;;1.53;;
8640;SDS011;4358;42.100;25.222;2023-05-07T15:05:54;1.70;;;1.60;;
8640;SDS011;4358;42.100;25.222;2023-05-07T15:08:21;1.80;;;1.70;;
8640;SDS011;4358;42.100;25.222;2023-05-07T15:10:48;5.33;;;1.70;;
8640;SDS011;4358;42.100;25.222;2023-05-07T15:13:15;2.97;;;1.73;;
8640;SDS011;4358;42.100;25.222;2023-05-07T15:15:42;2.23;;;1.80;;
8640;SDS011;4358;42.100;25.222;2023-05-07T15:18:12;3.83;;;1.80;;
8640;SDS011;4358;42.100;25.222;2023-05-07T15:20:39;2.00;;;1.70;;
8640;SDS011;4358;42.100;25.222;2023-05-07T15:23:07;1.77;;;1.67;;
8640;SDS011;4358;42.100;25.222;2023-05-07T15:25:36;2.40;;;1.93;;
8640;SDS011;4358;42.100;25.222;2023-05-07T15:28:04;3.60;;;1.80;;
8640;SDS011;4358;42.100;25.222;2023-05-07T15:30:30;2.43;;;1.60;;
8640;SDS011;4358;42.100;25.222;2023-05-07T15:32:57;2.37;;;1.70;;
8640;SDS011;4358;42.100;25.222;2023-05-07T15:35:25;2.77;;;1.80;;
8640;SDS011;4358;42.100;25.222;2023-05-07T15:37:52;2.83;;;1.77;;
8640;SDS011;4358;42.100;25.222;2023-05-07T15:40:19;2.27;;;1.77;;
8640;SDS011;4358;42.100;25.222;2023-05-07T15:42:46;2.07;;;1.70;;
8640;SDS011;4358;42.100;25.222;2023-05-07T15:45:13;6.07;;;1.73;;
8640;SDS011;4358;42.100;25.222;2023-05-07T15:47:40;2.20;;;1.60;;
8640;SDS011;4358;42.100;25.222;2023-05-07T15:50:07;6.63;;;1.90;;
8640;SDS011;4358;42.100;25.222;2023-05-07T15:52:35;2.63;;;1.60;;
8640;SDS011;4358;42.100;25.222;2023-05-07T15:55:03;3.97;;;1.70;;
8640;SDS011;4358;42.100;25.222;2023-05-07T15:57:31;2.50;;;1.50;;
8640;SDS011;4358;42.100;25.222;2023-05-07T15:59:58;2.17;;;1.90;;
8640;SDS011;4358;42.100;25.222;2023-05-07T16:02:25;2.73;;;1.70;;
8640;SDS011;4358;42.100;25.222;2023-05-07T16:04:52;3.13;;;1.83;;
8640;SDS011;4358;42.100;25.222;2023-05-07T16:07:19;3.03;;;1.50;;
8640;SDS011;4358;42.100;25.222;2023-05-07T16:09:48;1.77;;;1.67;;
8640;SDS011;4358;42.100;25.222;2023-05-07T16:12:15;3.40;;;1.80;;
8640;SDS011;4358;42.100;25.222;2023-05-07T16:14:42;2.27;;;1.63;;
8640;SDS011;4358;42.100;25.222;2023-05-07T16:17:08;4.77;;;1.80;;
8640;SDS011;4358;42.100;25.222;2023-05-07T16:19:35;34.30;;;20.53;;
8640;SDS011;4358;42.100;25.222;2023-05-07T16:22:02;3.67;;;2.07;;
8640;SDS011;4358;42.100;25.222;2023-05-07T16:24:29;2.80;;;2.33;;
8640;SDS011;4358;42.100;25.222;2023-05-07T16:26:58;1.50;;;1.40;;
8640;SDS011;4358;42.100;25.222;2023-05-07T16:29:25;3.23;;;2.20;;
8640;SDS011;4358;42.100;25.222;2023-05-07T16:31:52;3.73;;;2.20;;
8640;SDS011;4358;42.100;25.222;2023-05-07T16:34:20;3.13;;;2.17;;
8640;SDS011;4358;42.100;25.222;2023-05-07T16:36:47;4.67;;;2.70;;
8640;SDS011;4358;42.100;25.222;2023-05-07T16:39:14;3.47;;;2.80;;